^^
Station Historical Data
Daily Summary for February 13, 2018 Units:  English    Metric   Both
« Previous Day
Next Day »
Daily Weekly Monthly Yearly Custom
  High: Low: Average:
Temperature: 77 °F 51.1 °F 63 °F
Dew Point: 43.5 °F 29.8 °F 38.8 °F
Humidity: 66 % 20 % 44 %
Wind Speed: 10.4 mph 0 mph 2.5 mph
Wind Gust: 10.4 mph - -
Wind:- - SSE
Pressure: 30.1 in 30 in -
Precipitation: 0 in    
Historical Graphs
 
 
Tabular Data for February 13, 2018
Time Temperature Dew Point Pressure Wind Wind Speed Wind Gust Humidity Rainfall Rate (Hourly) solar Conditions
00:02 55.4 °F 43.3 °F 30 in SW 4 mph 4 mph 64 % 0 in 0.0 W/m2 CLR
00:07 56.5 °F 43.5 °F 30 in SW 4.6 mph 4.6 mph 62 % 0 in 0.0 W/m2 CLR
00:12 57.2 °F 43 °F 30 in South 5.8 mph 5.8 mph 59 % 0 in 0.0 W/m2 CLR
00:17 57.7 °F 42.6 °F 30 in WSW 9.2 mph 9.2 mph 57 % 0 in 0.0 W/m2 CLR
00:22 58.3 °F 42.6 °F 30 in SW 4.6 mph 4.6 mph 56 % 0 in 0.0 W/m2 CLR
00:27 58.6 °F 42.4 °F 30 in SSE 3.5 mph 3.5 mph 55 % 0 in 0.0 W/m2 CLR
00:32 58.8 °F 42.3 °F 30 in South 3.5 mph 3.5 mph 54 % 0 in 0.0 W/m2 CLR
00:36 58.8 °F 41.7 °F 30 in South 3.5 mph 3.5 mph 53 % 0 in 0.0 W/m2 CLR
00:37 58.8 °F 41.7 °F 30 in South 3.5 mph 3.5 mph 53 % 0 in 0.0 W/m2 CLR
00:42 58.8 °F 41.7 °F 30 in South 1.2 mph 1.2 mph 53 % 0 in 0.0 W/m2 CLR
00:47 58.8 °F 41.7 °F 30 in South 1 mph 1 mph 53 % 0 in 0.0 W/m2 CLR
00:52 58.8 °F 41.7 °F 30 in Calm     53 % 0 in 0.0 W/m2 CLR
00:57 58.6 °F 41.5 °F 30 in Calm     53 % 0 in 0.0 W/m2 CLR
01:03 58.6 °F 42.1 °F 30 in Calm     54 % 0 in 0.0 W/m2 SCT
01:08 58.5 °F 42.3 °F 30 in South 1.2 mph   55 % 0 in 0.0 W/m2 SCT
01:13 58.3 °F 42.1 °F 30 in South 1.2 mph 1.2 mph 55 % 0 in 0.0 W/m2 SCT
01:18 57.7 °F 42.3 °F 30 in Calm     56 % 0 in 0.0 W/m2 SCT
01:23 57.4 °F 42.3 °F 30 in South 1.2 mph 1.2 mph 57 % 0 in 0.0 W/m2 SCT
01:28 57 °F 42.1 °F 30 in SE 2.3 mph   57 % 0 in 0.0 W/m2 SCT
01:33 56.8 °F 41.7 °F 30 in ESE 2.3 mph 2.3 mph 57 % 0 in 0.0 W/m2 SCT
01:37 56.7 °F 41.5 °F 30 in ESE 1.2 mph 1.2 mph 57 % 0 in 0.0 W/m2 SCT
01:38 56.5 °F 41.9 °F 30 in ESE 2.3 mph 2.3 mph 58 % 0 in 0.0 W/m2 SCT
01:43 56.5 °F 41.7 °F 30 in ESE 2 mph 2 mph 58 % 0 in 0.0 W/m2 SCT
01:47 56.3 °F 41.7 °F 30 in ESE 1.2 mph 1.2 mph 58 % 0 in 0.0 W/m2 SCT
01:48 56.1 °F 41.5 °F 30 in ESE 2.3 mph 2.3 mph 58 % 0 in 0.0 W/m2 SCT
01:53 56.1 °F 41.5 °F 30 in East 3.5 mph 3.5 mph 58 % 0 in 0.0 W/m2 SCT
01:54 56.1 °F 41.5 °F 30 in East 2.3 mph 2.3 mph 58 % 0 in 0.0 W/m2 SCT
01:58 56.1 °F 41.5 °F 30 in East 3.5 mph 3.5 mph 58 % 0 in 0.0 W/m2 SCT
02:01 56.1 °F 41.5 °F 30 in East 2.3 mph 2.3 mph 58 % 0 in 0.0 W/m2 OVC
02:03 56.1 °F 41.5 °F 30 in East 1.2 mph 1.2 mph 58 % 0 in 0.0 W/m2 OVC
02:08 55.9 °F 41.4 °F 30 in SE 2.3 mph 2.3 mph 58 % 0 in 0.0 W/m2 OVC
02:10 55.9 °F 41.4 °F 30 in ESE 3.5 mph 3.5 mph 58 % 0 in 0.0 W/m2 OVC
02:14 55.9 °F 41.4 °F 30 in ESE 1.2 mph 1.2 mph 58 % 0 in 0.0 W/m2 OVC
02:19 55.9 °F 41.4 °F 30 in East 2.3 mph 2.3 mph 58 % 0 in 0.0 W/m2 OVC
02:24 55.9 °F 41.4 °F 30 in SSE 3 mph 3 mph 58 % 0 in 0.0 W/m2 OVC
02:29 55.9 °F 41.4 °F 30 in East 2.3 mph 2.3 mph 58 % 0 in 0.0 W/m2 OVC
02:32 55.8 °F 41.2 °F 30 in SE 3.5 mph 3.5 mph 58 % 0 in 0.0 W/m2 OVC
02:34 55.9 °F 41.4 °F 30 in ESE 1.2 mph 1.2 mph 58 % 0 in 0.0 W/m2 OVC
02:39 55.9 °F 41.4 °F 30 in ESE 3.5 mph 3.5 mph 58 % 0 in 0.0 W/m2 OVC
02:44 55.9 °F 41.4 °F 30 in ESE 3.5 mph 3.5 mph 58 % 0 in 0.0 W/m2 OVC
02:49 55.9 °F 41.4 °F 30 in East 3.5 mph 3.5 mph 58 % 0 in 0.0 W/m2 OVC
02:54 55.9 °F 41.4 °F 30 in ENE 2.3 mph 2.3 mph 58 % 0 in 0.0 W/m2 OVC
02:59 55.9 °F 41.4 °F 30 in South 2.3 mph 2.3 mph 58 % 0 in 0.0 W/m2 OVC
03:04 55.9 °F 41.4 °F 30 in ESE 3.5 mph 3.5 mph 58 % 0 in 0.0 W/m2 BKN
03:08 56.1 °F 41.5 °F 30 in SSE 5 mph 5 mph 58 % 0 in 0.0 W/m2 BKN
03:09 56.1 °F 42.1 °F 30 in East 4.6 mph 4.6 mph 59 % 0 in 0.0 W/m2 BKN
03:10 56.1 °F 42.1 °F 30 in East 1.2 mph 1.2 mph 59 % 0 in 0.0 W/m2 BKN
03:12 56.1 °F 42.1 °F 30 in ESE 4.6 mph 4.6 mph 59 % 0 in 0.0 W/m2 BKN
03:14 56.1 °F 42.1 °F 30 in ESE 3.5 mph 3.5 mph 59 % 0 in 0.0 W/m2 BKN
03:19 56.5 °F 42.3 °F 30 in South 3 mph 3 mph 59 % 0 in 0.0 W/m2 BKN
03:23 56.5 °F 41.7 °F 30 in ESE 2.3 mph 2.3 mph 58 % 0 in 0.0 W/m2 BKN
03:24 56.5 °F 41.7 °F 30 in SE 2.3 mph 2.3 mph 58 % 0 in 0.0 W/m2 BKN
03:29 56.5 °F 41.7 °F 30 in SE 3.5 mph 3.5 mph 58 % 0 in 0.0 W/m2 BKN
03:34 56.5 °F 41.7 °F 30 in SE 3.5 mph 3.5 mph 58 % 0 in 0.0 W/m2 BKN
03:39 56.5 °F 42.3 °F 30 in East 3.5 mph 3.5 mph 59 % 0 in 0.0 W/m2 BKN
03:44 56.5 °F 42.3 °F 30 in SE 2.3 mph 2.3 mph 59 % 0 in 0.0 W/m2 BKN
03:48 56.5 °F 42.3 °F 30 in SE 2.3 mph 2.3 mph 59 % 0 in 0.0 W/m2 BKN
03:49 56.5 °F 42.3 °F 30 in SE 3.5 mph 3.5 mph 59 % 0 in 0.0 W/m2 BKN
03:50 56.5 °F 42.3 °F 30 in SSW 5 mph 5 mph 59 % 0 in 0.0 W/m2 BKN
03:54 56.5 °F 42.3 °F 30 in Calm   5 mph 59 % 0 in 0.0 W/m2 BKN
03:59 56.5 °F 42.3 °F 30 in ENE 4.6 mph 4.6 mph 59 % 0 in 0.0 W/m2 BKN
04:00 56.5 °F 42.3 °F 30 in NNE 2.3 mph 2.3 mph 59 % 0 in 0.0 W/m2 BKN
04:01 56.5 °F 42.3 °F 30 in NNE 2.3 mph 2.3 mph 59 % 0 in 0.0 W/m2 BKN
04:02 56.5 °F 42.3 °F 30 in SSE 3.5 mph 3.5 mph 59 % 0 in 0.0 W/m2 BKN
04:04 56.7 °F 42.4 °F 30 in SE 3.5 mph 3.5 mph 59 % 0 in 0.0 W/m2 BKN
04:07 56.7 °F 42.1 °F 30 in East 2.3 mph 2.3 mph 58 % 0 in 0.0 W/m2 BKN
04:08 56.7 °F 42.1 °F 30 in East 2.3 mph 2.3 mph 58 % 0 in 0.0 W/m2 BKN
04:10 56.7 °F 42.1 °F 30 in East 1.2 mph 1.2 mph 58 % 0 in 0.0 W/m2 BKN
04:14 56.7 °F 42.1 °F 30 in East 1 mph 3 mph 58 % 0 in 0.0 W/m2 BKN
04:20 56.7 °F 42.1 °F 30 in East 2.3 mph 2.3 mph 58 % 0 in 0.0 W/m2 BKN
04:24 56.7 °F 42.1 °F 30 in East 2.3 mph 2.3 mph 58 % 0 in 0.0 W/m2 BKN
04:25 56.7 °F 42.1 °F 30 in East 2.3 mph 2.3 mph 58 % 0 in 0.0 W/m2 BKN
04:27 56.7 °F 42.1 °F 30 in Calm   0.1 mph 58 % 0 in 0.0 W/m2 BKN
04:30 56.7 °F 42.1 °F 30 in Calm     58 % 0 in 0.0 W/m2 BKN
04:32 56.7 °F 42.1 °F 30 in East 1 mph 1 mph 58 % 0 in 0.0 W/m2 BKN
04:35 56.7 °F 42.1 °F 30 in Calm     58 % 0 in 0.0 W/m2 BKN
04:40 56.5 °F 41.7 °F 30 in East 1.2 mph 1.2 mph 58 % 0 in 0.0 W/m2 BKN
04:43 56.3 °F 42.1 °F 30 in East 1 mph 1 mph 59 % 0 in 0.0 W/m2 BKN
04:45 56.1 °F 42.1 °F 30 in East 1.2 mph 1.2 mph 59 % 0 in 0.0 W/m2 BKN
04:50 55.9 °F 41.7 °F 30 in Calm     59 % 0 in 0.0 W/m2 BKN
04:55 55.6 °F 41.7 °F 30 in Calm     60 % 0 in 0.0 W/m2 BKN
05:00 55.6 °F 41.7 °F 30 in Calm     60 % 0 in 0.0 W/m2 BKN
05:05 55.2 °F 41.5 °F 30 in Calm   0.1 mph 60 % 0 in 0.0 W/m2 BKN
05:10 55 °F 41.9 °F 30 in Calm     61 % 0 in 0.0 W/m2 BKN
05:15 55 °F 41.7 °F 30 in Calm     61 % 0 in 0.0 W/m2 BKN
05:20 54.9 °F 41.5 °F 30 in Calm     61 % 0 in 0.0 W/m2 BKN
05:25 54.3 °F 41.5 °F 30 in East 2.3 mph 2.3 mph 62 % 0 in 0.0 W/m2 BKN
05:30 54 °F 41.5 °F 30 in Calm     63 % 0 in 0.0 W/m2 BKN
05:35 53.8 °F 41.4 °F 30 in Calm     63 % 0 in 0.0 W/m2 BKN
05:37 53.8 °F 41.4 °F 30 in East 1.2 mph 1.2 mph 63 % 0 in 0.0 W/m2 BKN
05:41 53.6 °F 41.4 °F 30 in East 1.2 mph   63 % 0 in 0.0 W/m2 BKN
05:46 53.4 °F 41.5 °F 30 in East 1.2 mph 1.2 mph 64 % 0 in 0.0 W/m2 BKN
05:51 53.2 °F 41.4 °F 30 in Calm     64 % 0 in 0.0 W/m2 BKN
05:56 53.1 °F 41.5 °F 30 in Calm     65 % 0 in 0.0 W/m2 BKN
06:01 53.1 °F 41.2 °F 30 in Calm     64 % 0 in 0.0 W/m2 FEW
06:06 52.9 °F 41 °F 30 in East 1.2 mph 1.2 mph 64 % 0 in 0.0 W/m2 FEW
06:11 52.5 °F 41.2 °F 30 in East 1.2 mph   65 % 0 in 0.0 W/m2 FEW
06:16 52.5 °F 41.2 °F 30 in East 1.2 mph   65 % 0 in 0.0 W/m2 FEW
06:21 52.3 °F 41 °F 30 in East 1.2 mph   65 % 0 in 0.0 W/m2 FEW
06:26 52.3 °F 40.8 °F 30 in East 2.3 mph 2.3 mph 65 % 0 in 0.0 W/m2 FEW
06:31 52.2 °F 40.8 °F 30 in East 1.2 mph 1.2 mph 65 % 0 in 0.0 W/m2 FEW
06:36 52.2 °F 40.6 °F 30 in East 2.3 mph 2.3 mph 65 % 0 in 0.0 W/m2 FEW
06:41 52.2 °F 40.6 °F 30 in Calm     65 % 0 in 0.0 W/m2 FEW
06:46 52 °F 41 °F 30 in East 1.2 mph   66 % 0 in 0.0 W/m2 FEW
06:51 52 °F 40.8 °F 30 in Calm     66 % 0 in 0.0 W/m2 FEW
06:56 52 °F 40.5 °F 30 in East 1.2 mph   65 % 0 in 0.0 W/m2 FEW
07:01 51.8 °F 40.5 °F 30 in ENE 2.3 mph 2.3 mph 65 % 0 in 0.0 W/m2 BKN
07:06 51.6 °F 40.3 °F 30 in ENE 1.2 mph 1.2 mph 65 % 0 in 0.0 W/m2 BKN
07:11 51.4 °F 40.1 °F 30 in ENE 1.2 mph 1.2 mph 65 % 0 in 0.0 W/m2 BKN
07:16 51.4 °F 39.9 °F 30 in East 2.3 mph   65 % 0 in 7.0 W/m2 BKN
07:22 51.3 °F 40.3 °F 30 in East 1.2 mph 1.2 mph 66 % 0 in 12.0 W/m2 BKN
07:27 51.1 °F 40.1 °F 30 in East 1 mph 1 mph 66 % 0 in 23.0 W/m2 BKN
07:32 51.1 °F 40.1 °F 30 in East 1.2 mph 1.2 mph 66 % 0 in 35.0 W/m2 BKN
07:37 51.1 °F 39.9 °F 30 in East 1.2 mph 1.2 mph 66 % 0 in 56.0 W/m2 BKN
07:42 51.1 °F 39.9 °F 30.1 in East 1.2 mph 1.2 mph 66 % 0 in 102.0 W/m2 BKN
07:47 51.3 °F 40.3 °F 30.1 in East 2.3 mph 2.3 mph 66 % 0 in 128.0 W/m2 BKN
07:52 51.6 °F 40.3 °F 30.1 in East 2.3 mph 2.3 mph 65 % 0 in 144.0 W/m2 BKN
07:57 52.2 °F 40.5 °F 30.1 in ESE 2.3 mph 2.3 mph 64 % 0 in 190.0 W/m2 BKN
08:02 52.9 °F 40.3 °F 30.1 in ESE 1.2 mph 1.2 mph 62 % 0 in 223.0 W/m2 CLR
08:07 53.8 °F 40.6 °F 30.1 in Calm     61 % 0 in 250.0 W/m2 CLR
08:12 54.5 °F 40.8 °F 30.1 in ENE 2.3 mph 2.3 mph 60 % 0 in 288.0 W/m2 CLR
08:17 55.2 °F 40.6 °F 30.1 in East 3.5 mph 3.5 mph 58 % 0 in 311.0 W/m2 CLR
08:22 55.8 °F 40.8 °F 30.1 in ESE 4.6 mph 4.6 mph 57 % 0 in 336.0 W/m2 CLR
08:27 56.5 °F 40.8 °F 30.1 in South 3.5 mph 3.5 mph 56 % 0 in 264.0 W/m2 CLR
08:32 56.8 °F 40.8 °F 30.1 in South 1.2 mph 1.2 mph 55 % 0 in 369.0 W/m2 CLR
08:33 56.8 °F 40.8 °F 30.1 in South 1.2 mph 1.2 mph 55 % 0 in 369.0 W/m2 CLR
08:37 57.2 °F 40.6 °F 30.1 in South 3.5 mph 3.5 mph 54 % 0 in 267.0 W/m2 CLR
08:42 57.7 °F 40.8 °F 30.1 in South 3 mph 3 mph 53 % 0 in 406.0 W/m2 CLR
08:47 58.3 °F 40.6 °F 30.1 in ENE 3.5 mph 3.5 mph 52 % 0 in 387.0 W/m2 CLR
08:52 58.8 °F 40.8 °F 30.1 in WSW 2.3 mph 2.3 mph 51 % 0 in 322.0 W/m2 CLR
08:57 59.4 °F 40.6 °F 30.1 in SE 3.5 mph 3.5 mph 50 % 0 in 350.0 W/m2 CLR
09:00 59.5 °F 40.8 °F 30.1 in ENE 3.5 mph 3.5 mph 50 % 0 in 397.0 W/m2 CLR
09:02 59.7 °F 40.6 °F 30.1 in SSE 3.5 mph 3.5 mph 49 % 0 in 418.0 W/m2 CLR
09:08 60.4 °F 40.6 °F 30.1 in ESE 1.2 mph 1.2 mph 48 % 0 in 413.0 W/m2 CLR
09:13 61 °F 41.2 °F 30.1 in ESE 3.5 mph 3.5 mph 48 % 0 in 431.0 W/m2 CLR
09:18 61.3 °F 41 °F 30.1 in East 1.2 mph 1.2 mph 47 % 0 in 443.0 W/m2 CLR
09:23 62.1 °F 41.2 °F 30.1 in ESE 3.5 mph 3.5 mph 46 % 0 in 457.0 W/m2 CLR
09:28 62.8 °F 41.2 °F 30.1 in South 2.3 mph 2.3 mph 45 % 0 in 450.0 W/m2 CLR
09:33 63.5 °F 40.6 °F 30.1 in West 3.5 mph 3.5 mph 43 % 0 in 487.0 W/m2 CLR
09:38 64.2 °F 40.6 °F 30.1 in SE 6.9 mph 6.9 mph 42 % 0 in 504.0 W/m2 CLR
09:43 64.9 °F 39.9 °F 30.1 in ENE 10.4 mph 10.4 mph 40 % 0 in 519.0 W/m2 CLR
09:48 65.5 °F 40.5 °F 30.1 in ENE 7 mph 7 mph 40 % 0 in 534.0 W/m2 CLR
09:53 65.7 °F 39.9 °F 30.1 in East 5.8 mph 5.8 mph 39 % 0 in 547.0 W/m2 CLR
09:56 65.7 °F 40.1 °F 30.1 in NE 4.6 mph 4.6 mph 39 % 0 in 557.0 W/m2 CLR
09:58 65.8 °F 40.1 °F 30.1 in ENE 7 mph 7 mph 39 % 0 in 561.0 W/m2 CLR
10:03 66 °F 39.7 °F 30.1 in ESE 3.5 mph 3.5 mph 38 % 0 in 573.0 W/m2 CLR
10:08 66.6 °F 40.1 °F 30.1 in SE 4.6 mph 4.6 mph 38 % 0 in 592.0 W/m2 CLR
10:13 66.6 °F 40.1 °F 30.1 in SSW 9.2 mph 9.2 mph 38 % 0 in 580.0 W/m2 CLR
10:18 66.2 °F 39.7 °F 30.1 in SE 4.6 mph 4.6 mph 38 % 0 in 577.0 W/m2 CLR
10:23 66.4 °F 39.9 °F 30.1 in NE 3.5 mph 3.5 mph 38 % 0 in 216.0 W/m2 CLR
10:28 66.4 °F 39.9 °F 30.1 in SSE 3.5 mph 3.5 mph 38 % 0 in 575.0 W/m2 CLR
10:33 66.2 °F 39.7 °F 30.1 in SSE 8.1 mph 8.1 mph 38 % 0 in 517.0 W/m2 CLR
10:39 66.2 °F 39.7 °F 30.1 in SSW 6.9 mph 6.9 mph 38 % 0 in 633.0 W/m2 CLR
10:44 66.6 °F 40.1 °F 30.1 in ENE 6.9 mph 6.9 mph 38 % 0 in 566.0 W/m2 CLR
10:49 66.7 °F 39.7 °F 30.1 in SW 5.8 mph 5.8 mph 37 % 0 in 664.0 W/m2 CLR
10:54 66.9 °F 39 °F 30.1 in ENE 6.9 mph 6.9 mph 36 % 0 in 657.0 W/m2 CLR
10:59 67.3 °F 39.4 °F 30.1 in WSW 3.5 mph 3.5 mph 36 % 0 in 436.0 W/m2 CLR
11:04 67.3 °F 39.4 °F 30.1 in NE 6.9 mph 6.9 mph 36 % 0 in 557.0 W/m2 CLR
11:09 67.3 °F 38.7 °F 30.1 in NE 7 mph 7 mph 35 % 0 in 691.0 W/m2 CLR
11:14 67.5 °F 38.8 °F 30.1 in East 6 mph 6 mph 35 % 0 in 691.0 W/m2 CLR
11:19 67.8 °F 39.2 °F 30.1 in ENE 4.6 mph 4.6 mph 35 % 0 in 800.0 W/m2 CLR
11:24 68.4 °F 38.8 °F 30.1 in SE 6.9 mph 6.9 mph 34 % 0 in 694.0 W/m2 CLR
11:29 68.5 °F 38.3 °F 30.1 in SSE 6.9 mph 6.9 mph 33 % 0 in 591.0 W/m2 CLR
11:34 68.5 °F 38.3 °F 30.1 in SSE 8.1 mph 8.1 mph 33 % 0 in 800.0 W/m2 CLR
11:39 68.9 °F 37.8 °F 30.1 in SSE 6.9 mph 6.9 mph 32 % 0 in 480.0 W/m2 CLR
11:44 69.1 °F 37.9 °F 30.1 in NNW 5.8 mph 5.8 mph 32 % 0 in 773.0 W/m2 CLR
11:49 69.3 °F 38.1 °F 30.1 in South 6.9 mph 6.9 mph 32 % 0 in 719.0 W/m2 CLR
11:54 69.4 °F 38.3 °F 30.1 in East 6 mph 6 mph 32 % 0 in 772.0 W/m2 CLR
11:59 69.6 °F 38.5 °F 30.1 in SE 4 mph 4 mph 32 % 0 in 715.0 W/m2 CLR
12:04 69.6 °F 37.8 °F 30.1 in SE 6 mph 6 mph 31 % 0 in 547.0 W/m2 CLR
12:10 69.6 °F 37.8 °F 30.1 in SE 7 mph 7 mph 31 % 0 in 568.0 W/m2 CLR
12:15 69.4 °F 37.4 °F 30.1 in ESE 8.1 mph 8.1 mph 31 % 0 in 733.0 W/m2 CLR
12:20 69.4 °F 37.6 °F 30.1 in SSE 6 mph 6 mph 31 % 0 in 490.0 W/m2 CLR
12:25 69.4 °F 37.6 °F 30.1 in SE 7 mph 7 mph 31 % 0 in 536.0 W/m2 CLR
12:30 69.4 °F 37.6 °F 30.1 in East 6 mph 6 mph 31 % 0 in 445.0 W/m2 CLR
12:35 69.3 °F 37.2 °F 30.1 in SE 10.4 mph 10.4 mph 31 % 0 in 439.0 W/m2 CLR
12:40 69.3 °F 38.1 °F 30.1 in SSW 5 mph 5 mph 32 % 0 in 673.0 W/m2 CLR
12:45 69.6 °F 36.9 °F 30.1 in NE 8.1 mph 8.1 mph 30 % 0 in 661.0 W/m2 CLR
12:50 70 °F 37 °F 30.1 in ENE 6.9 mph 6.9 mph 30 % 0 in 541.0 W/m2 CLR
12:55 70.2 °F 37.2 °F 30.1 in SSE 5.8 mph 5.8 mph 30 % 0 in 524.0 W/m2 CLR
12:58 70.3 °F 37.4 °F 30.1 in SSE 8.1 mph 8.1 mph 30 % 0 in 504.0 W/m2 CLR
13:00 70.3 °F 37.4 °F 30.1 in ESE 4.6 mph 4.6 mph 30 % 0 in 519.0 W/m2 CLR
13:05 70.5 °F 36.7 °F 30.1 in SW 5.8 mph 5.8 mph 29 % 0 in 529.0 W/m2 CLR
13:10 70.5 °F 37.6 °F 30.1 in SSE 6.9 mph 6.9 mph 30 % 0 in 566.0 W/m2 CLR
13:15 70.9 °F 37 °F 30.1 in South 3.5 mph 3.5 mph 29 % 0 in 661.0 W/m2 CLR
13:20 71.2 °F 37.2 °F 30.1 in South 4.6 mph 4.6 mph 29 % 0 in 606.0 W/m2 CLR
13:25 71.1 °F 37 °F 30.1 in East 5 mph 5 mph 29 % 0 in 617.0 W/m2 CLR
13:30 70.9 °F 37 °F 30.1 in NE 6.9 mph 6.9 mph 29 % 0 in 524.0 W/m2 CLR
13:35 71.1 °F 37 °F 30.1 in ESE 3.5 mph 3.5 mph 29 % 0 in 533.0 W/m2 CLR
13:40 71.4 °F 36.7 °F 30.1 in SSW 5 mph 5 mph 28 % 0 in 606.0 W/m2 CLR
13:45 71.8 °F 36.9 °F 30.1 in SSE 4.6 mph 4.6 mph 28 % 0 in 691.0 W/m2 CLR
13:51 72 °F 37 °F 30.1 in ESE 3.5 mph 3.5 mph 28 % 0 in 633.0 W/m2 CLR
13:56 72.3 °F 36.5 °F 30.1 in South 3.5 mph 3.5 mph 27 % 0 in 589.0 W/m2 CLR
14:01 72.9 °F 36.9 °F 30.1 in SSW 5.8 mph 5.8 mph 27 % 0 in 694.0 W/m2 CLR
14:06 73.2 °F 37.2 °F 30.1 in SW 3.5 mph 3.5 mph 27 % 0 in 629.0 W/m2 CLR
14:11 73.8 °F 36.7 °F 30.1 in SSE 3.5 mph 3.5 mph 26 % 0 in 531.0 W/m2 CLR
14:16 73.8 °F 36.7 °F 30 in SSE 5 mph 5 mph 26 % 0 in 522.0 W/m2 CLR
14:21 73.6 °F 36.5 °F 30.1 in East 1.2 mph 1.2 mph 26 % 0 in 622.0 W/m2 CLR
14:26 73.6 °F 36.5 °F 30 in ENE 3.5 mph 3.5 mph 26 % 0 in 619.0 W/m2 CLR
14:30 73.8 °F 36.7 °F 30 in East 1.2 mph 1.4 mph 26 % 0 in 635.0 W/m2 CLR
14:31 73.8 °F 36.9 °F 30 in East 3.5 mph 3.5 mph 26 % 0 in 624.0 W/m2 CLR
14:36 74.5 °F 36.3 °F 30 in SSE 3.5 mph 3.5 mph 25 % 0 in 411.0 W/m2 CLR
14:40 74.7 °F 36.3 °F 30 in SSE 1.2 mph 1.2 mph 25 % 0 in 394.0 W/m2 CLR
14:41 74.7 °F 36.5 °F 30 in SSE 2 mph 2 mph 25 % 0 in 638.0 W/m2 CLR
14:46 74.8 °F 36.7 °F 30 in East 4.6 mph 4.6 mph 25 % 0 in 548.0 W/m2 CLR
14:51 75 °F 35.8 °F 30 in ENE 2.3 mph   24 % 0 in 654.0 W/m2 CLR
14:57 75.4 °F 37 °F 30 in Calm     25 % 0 in 570.0 W/m2 CLR
15:02 75.9 °F 36.5 °F 30 in NE 2.3 mph 2.3 mph 24 % 0 in 541.0 W/m2 CLR
15:07 76.5 °F 36 °F 30 in WSW 1.2 mph 1.2 mph 23 % 0 in 633.0 W/m2 CLR
15:12 76.8 °F 36.1 °F 30 in WNW 1.2 mph 1.2 mph 23 % 0 in 436.0 W/m2 CLR
15:17 77 °F 35.2 °F 30 in SW 3 mph 3 mph 22 % 0 in 475.0 W/m2 CLR
15:22 76.6 °F 35.1 °F 30 in SSW 5 mph 5 mph 22 % 0 in 485.0 W/m2 CLR
15:27 76.3 °F 34.5 °F 30 in SW 3.5 mph 3.5 mph 22 % 0 in 290.0 W/m2 CLR
15:32 75.7 °F 35.2 °F 30 in SSW 2.3 mph 2.3 mph 23 % 0 in 476.0 W/m2 CLR
15:37 75.7 °F 35.2 °F 30 in SSW 1.2 mph 1.2 mph 23 % 0 in 383.0 W/m2 CLR
15:42 75.7 °F 35.2 °F 30 in SW 2.3 mph 2.3 mph 23 % 0 in 329.0 W/m2 CLR
15:47 75.7 °F 35.2 °F 30 in North 3.5 mph 3.5 mph 23 % 0 in 338.0 W/m2 CLR
15:52 75.7 °F 34.2 °F 30 in NNE 4 mph 4 mph 22 % 0 in 204.0 W/m2 CLR
15:57 75.7 °F 35.2 °F 30 in NNE 1.2 mph 1.2 mph 23 % 0 in 288.0 W/m2 CLR
16:02 75.7 °F 34.2 °F 30 in SW 2.3 mph 2.3 mph 22 % 0 in 318.0 W/m2 CLR
16:04 75.7 °F 34.2 °F 30 in SW 3.5 mph 3.5 mph 22 % 0 in 297.0 W/m2 CLR
16:07 75.7 °F 34.2 °F 30 in SW 3.5 mph 3.5 mph 22 % 0 in 290.0 W/m2 CLR
16:12 75.7 °F 34.2 °F 30 in SSE 2 mph 2 mph 22 % 0 in 267.0 W/m2 CLR
16:17 75.6 °F 34 °F 30 in SSE 2.3 mph 2.3 mph 22 % 0 in 313.0 W/m2 CLR
16:22 75.6 °F 34 °F 30 in SSE 1.2 mph   22 % 0 in 318.0 W/m2 CLR
16:27 75.6 °F 34.2 °F 30 in NW 2.3 mph 2.3 mph 22 % 0 in 260.0 W/m2 CLR
16:33 75.7 °F 34.2 °F 30 in West 1.2 mph 1.2 mph 22 % 0 in 255.0 W/m2 CLR
16:38 75.7 °F 34.2 °F 30 in WNW 1.2 mph 1.2 mph 22 % 0 in 214.0 W/m2 CLR
16:43 75.9 °F 34.3 °F 30 in WNW 2.3 mph 2.3 mph 22 % 0 in 246.0 W/m2 CLR
16:48 75.9 °F 33.3 °F 30 in WNW 1.2 mph 1.2 mph 21 % 0 in 223.0 W/m2 CLR
16:53 76.3 °F 34.5 °F 30 in WNW 2.3 mph 2.3 mph 22 % 0 in 185.0 W/m2 CLR
16:58 76.3 °F 33.4 °F 30 in West 2.3 mph 2.3 mph 21 % 0 in 132.0 W/m2 CLR
17:03 75.9 °F 33.3 °F 30 in West 3.5 mph 3.5 mph 21 % 0 in 151.0 W/m2 CLR
17:08 75.9 °F 33.1 °F 30 in SW 3.5 mph 3.5 mph 21 % 0 in 137.0 W/m2 CLR
17:13 75.7 °F 33.1 °F 30 in WSW 2.3 mph 2.3 mph 21 % 0 in 88.0 W/m2 CLR
17:18 75.6 °F 32.7 °F 30 in SW 3.5 mph 3.5 mph 21 % 0 in 69.0 W/m2 CLR
17:23 74.8 °F 31.1 °F 30 in SW 7 mph 7 mph 20 % 0 in 60.0 W/m2 CLR
17:28 74.1 °F 30.6 °F 30 in SSW 9.2 mph 9.2 mph 20 % 0 in 47.0 W/m2 CLR
17:33 73.6 °F 29.8 °F 30 in WSW 9 mph 9 mph 20 % 0 in 40.0 W/m2 CLR
17:38 73 °F 34.2 °F 30.1 in West 3.5 mph 3.5 mph 24 % 0 in 33.0 W/m2 CLR
17:43 72.5 °F 34.7 °F 30.1 in WNW 8.1 mph 8.1 mph 25 % 0 in 30.0 W/m2 CLR
17:48 71.8 °F 35.1 °F 30.1 in West 2.3 mph 2.3 mph 26 % 0 in 25.0 W/m2 CLR
17:53 71.2 °F 34.5 °F 30.1 in WNW 3.5 mph 3.5 mph 26 % 0 in 18.0 W/m2 CLR
17:58 71.1 °F 35.2 °F 30.1 in NW 3.5 mph 3.5 mph 27 % 0 in 11.0 W/m2 CLR
18:04 70.7 °F 35.1 °F 30.1 in NW 2.3 mph 2.3 mph 27 % 0 in 0.0 W/m2 CLR
18:09 70.3 °F 34.9 °F 30.1 in WNW 1.2 mph 1.2 mph 27 % 0 in 0.0 W/m2 CLR
18:14 70.2 °F 35.4 °F 30.1 in NW 3 mph 3 mph 28 % 0 in 0.0 W/m2 CLR
18:19 69.8 °F 35.2 °F 30.1 in WNW 3 mph 3 mph 28 % 0 in 0.0 W/m2 CLR
18:24 69.6 °F 36 °F 30.1 in NW 1.2 mph 1.2 mph 29 % 0 in 0.0 W/m2 CLR
18:29 69.3 °F 35.8 °F 30.1 in WNW 2 mph 2 mph 29 % 0 in 0.0 W/m2 CLR
18:34 69.1 °F 36.3 °F 30.1 in WNW 1.2 mph 1.2 mph 30 % 0 in 0.0 W/m2 CLR
18:39 68.7 °F 36.1 °F 30.1 in WNW 1 mph   30 % 0 in 0.0 W/m2 CLR
18:44 68.5 °F 36 °F 30.1 in WNW 1 mph 1 mph 30 % 0 in 0.0 W/m2 CLR
18:49 68.4 °F 35.8 °F 30.1 in WNW 1.2 mph 1.2 mph 30 % 0 in 0.0 W/m2 CLR
18:54 68.2 °F 36.3 °F 30.1 in WNW 1.2 mph 1.2 mph 31 % 0 in 0.0 W/m2 CLR
18:59 67.8 °F 36.1 °F 30.1 in WNW 1.2 mph 1.2 mph 31 % 0 in 0.0 W/m2 CLR
19:04 67.6 °F 36 °F 30.1 in Calm     31 % 0 in 0.0 W/m2 CLR
19:09 67.6 °F 36.7 °F 30.1 in Calm     32 % 0 in 0.0 W/m2 CLR
19:10 67.6 °F 36.7 °F 30.1 in Calm     32 % 0 in 0.0 W/m2 CLR
19:15 67.5 °F 35.8 °F 30.1 in Calm   1 mph 31 % 0 in 0.0 W/m2 CLR
19:20 67.3 °F 35.4 °F 30.1 in Calm     31 % 0 in 0.0 W/m2 CLR
19:25 67.1 °F 35.4 °F 30.1 in Calm     31 % 0 in 0.0 W/m2 CLR
19:30 66.9 °F 36.1 °F 30.1 in WNW 1.2 mph   32 % 0 in 0.0 W/m2 CLR
19:35 66.6 °F 35.8 °F 30.1 in Calm     32 % 0 in 0.0 W/m2 CLR
19:40 66.4 °F 35.6 °F 30.1 in Calm     32 % 0 in 0.0 W/m2 CLR
19:45 66.4 °F 35.4 °F 30.1 in Calm     32 % 0 in 0.0 W/m2 CLR
19:50 66.2 °F 36.1 °F 30.1 in Calm     33 % 0 in 0.0 W/m2 CLR
19:55 65.8 °F 36 °F 30.1 in Calm     33 % 0 in 0.0 W/m2 CLR
20:00 65.8 °F 36 °F 30.1 in Calm     33 % 0 in 0.0 W/m2 CLR
20:05 65.7 °F 35.8 °F 30.1 in Calm     33 % 0 in 0.0 W/m2 CLR
20:10 65.5 °F 36.3 °F 30.1 in Calm     34 % 0 in 0.0 W/m2 CLR
20:15 65.1 °F 36.1 °F 30.1 in Calm     34 % 0 in 0.0 W/m2 CLR
20:20 64.9 °F 36 °F 30.1 in Calm     34 % 0 in 0.0 W/m2 CLR
20:26 64.8 °F 35.8 °F 30.1 in Calm     34 % 0 in 0.0 W/m2 CLR
20:31 64.4 °F 37.6 °F 30.1 in Calm     37 % 0 in 0.0 W/m2 CLR
20:36 63.9 °F 37.8 °F 30.1 in Calm     38 % 0 in 0.0 W/m2 CLR
20:41 63.5 °F 36.7 °F 30.1 in Calm     37 % 0 in 0.0 W/m2 CLR
20:46 63.3 °F 36.7 °F 30.1 in Calm     37 % 0 in 0.0 W/m2 CLR
20:51 63.3 °F 36.7 °F 30.1 in Calm     37 % 0 in 0.0 W/m2 CLR
20:56 63.1 °F 36.5 °F 30.1 in WNW 1 mph   37 % 0 in 0.0 W/m2 CLR
21:01 63 °F 36.3 °F 30.1 in WNW 1.2 mph 1.2 mph 37 % 0 in 0.0 W/m2 CLR
21:06 63 °F 36.9 °F 30.1 in WSW 3.5 mph 3.5 mph 38 % 0 in 0.0 W/m2 CLR
21:11 63 °F 36.9 °F 30.1 in WSW 2.3 mph 2.3 mph 38 % 0 in 0.0 W/m2 CLR
21:13 63 °F 36.9 °F 30.1 in WSW 1.2 mph   38 % 0 in 0.0 W/m2 CLR
21:16 62.8 °F 36.9 °F 30.1 in WSW 1.2 mph   38 % 0 in 0.0 W/m2 CLR
21:21 62.8 °F 37.6 °F 30.1 in WSW 1 mph 1 mph 39 % 0 in 0.0 W/m2 CLR
21:26 62.8 °F 36.7 °F 30.1 in Calm     38 % 0 in 0.0 W/m2 CLR
21:31 62.8 °F 36.7 °F 30.1 in Calm     38 % 0 in 0.0 W/m2 CLR
21:36 62.4 °F 37 °F 30.1 in WSW 1.2 mph   39 % 0 in 0.0 W/m2 CLR
21:42 62.2 °F 37 °F 30.1 in Calm     39 % 0 in 0.0 W/m2 CLR
21:47 62.2 °F 37 °F 30.1 in Calm     39 % 0 in 0.0 W/m2 CLR
21:52 62.2 °F 36.9 °F 30.1 in WSW 1.2 mph   39 % 0 in 0.0 W/m2 CLR
21:57 62.1 °F 37.6 °F 30.1 in Calm     40 % 0 in 0.0 W/m2 CLR
22:02 61.9 °F 37.2 °F 30.1 in Calm     40 % 0 in 0.0 W/m2 CLR
22:07 61.9 °F 37.2 °F 30.1 in WSW 1.2 mph   40 % 0 in 0.0 W/m2 CLR
22:12 61.5 °F 37.8 °F 30.1 in WSW 1.2 mph 1.2 mph 41 % 0 in 0.0 W/m2 CLR
22:17 61.2 °F 38.5 °F 30.1 in WNW 2.3 mph 2.3 mph 43 % 0 in 0.0 W/m2 CLR
22:22 60.6 °F 39 °F 30.1 in WNW 2.3 mph 2.3 mph 45 % 0 in 0.0 W/m2 CLR
22:27 60.4 °F 38.5 °F 30.1 in Calm     44 % 0 in 0.0 W/m2 CLR
22:32 60.4 °F 38.5 °F 30.1 in Calm     44 % 0 in 0.0 W/m2 CLR
22:37 60.3 °F 38.3 °F 30.1 in Calm     44 % 0 in 0.0 W/m2 CLR
22:42 60.3 °F 38.1 °F 30.1 in Calm     44 % 0 in 0.0 W/m2 CLR
22:47 60.3 °F 38.1 °F 30.1 in Calm     44 % 0 in 0.0 W/m2 CLR
22:52 59.9 °F 37.9 °F 30.1 in Calm     44 % 0 in 0.0 W/m2 CLR
22:57 59.7 °F 38.5 °F 30.1 in Calm     45 % 0 in 0.0 W/m2 CLR
23:02 59.5 °F 38.8 °F 30.1 in WNW 1.2 mph 1.2 mph 46 % 0 in 0.0 W/m2 CLR
23:07 59.4 °F 38.5 °F 30.1 in WNW 1.2 mph   46 % 0 in 0.0 W/m2 CLR
23:13 59.2 °F 37.8 °F 30.1 in Calm     45 % 0 in 0.0 W/m2 CLR
23:18 59 °F 38.1 °F 30.1 in Calm     46 % 0 in 0.0 W/m2 CLR
23:23 58.8 °F 37.6 °F 30.1 in Calm     45 % 0 in 0.0 W/m2 CLR
23:28 58.6 °F 37.2 °F 30.1 in Calm     45 % 0 in 0.0 W/m2 CLR
23:33 58.3 °F 37 °F 30.1 in Calm     45 % 0 in 0.0 W/m2 CLR
23:38 58.1 °F 36.3 °F 30.1 in Calm     44 % 0 in 0.0 W/m2 CLR
23:43 57.9 °F 36.1 °F 30.1 in WNW 2.3 mph 2.3 mph 44 % 0 in 0.0 W/m2 CLR
23:48 57.7 °F 36.5 °F 30.1 in Calm     45 % 0 in 0.0 W/m2 CLR
23:53 57.6 °F 36.3 °F 30.1 in Calm     45 % 0 in 0.0 W/m2 CLR
23:56 57.6 °F 36.3 °F 30.1 in Calm     45 % 0 in 0.0 W/m2 CLR
23:58 57.6 °F 36.3 °F 30.1 in WNW 1.2 mph 1.2 mph 45 % 0 in 0.0 W/m2 CLR
Countryside Manor, Tucson, AZ, USA
Compliments of Weather Underground - 4.75 mb